Nichimi Maru — JJ3251 — position and weather

sailwx.info

Track history (hours):
 
Tides and Currents Weather Stations Pressure Air Temp Water Temp Dewpoint Dewpoint Depression Visibility Wind Speed Wind Dir Waves Ship Positions

Nichimi Maru

Last reported at 2017-Oct-23 08:00 UTC. Time now 2017-Oct-23 08:22 UTC.
Position N 35°24' E 139°42'.

Length 89 m; draft 3.6 m.

Type: Tanker. MMSI: 431000495.

Date/timePositionNaut miles runAvg speedWind from/ knotsBaromVisibWave heightAir tempDewpointWater temp
2017-Oct-23 08:00N 35°24' E 139°42'510.4
2017-Oct-23 07:30N 35°26' E 139°47'610.7
2017-Oct-23 06:58N 35°30' E 139°53'4 9.3
2017-Oct-23 06:30N 35°30' E 139°58'3 3.4
2017-Oct-23 05:41N 35°31' E 140°01'0 0.0
2017-Oct-23 05:30N 35°31' E 140°01'0 0.1
2017-Oct-23 04:44N 35°31' E 140°02'0 0.2
2017-Oct-23 04:24N 35°31' E 140°01'0 0.0
2017-Oct-23 03:54N 35°31' E 140°01'0 0.0
2017-Oct-23 03:18N 35°31' E 140°01'0 0.0
2017-Oct-23 02:58N 35°31' E 140°01'0 0.1
2017-Oct-23 02:26N 35°31' E 140°02'0 0.1
2017-Oct-23 01:29N 35°31' E 140°01'0 0.0
2017-Oct-22 22:19N 35°31' E 140°02'0 0.0
2017-Oct-22 14:43N 35°31' E 140°01'0 0.0
2017-Oct-22 14:07N 35°31' E 140°01'0 0.0
2017-Oct-22 13:08N 35°31' E 140°01'0 0.0
2017-Oct-22 12:48N 35°31' E 140°01'0 0.0
2017-Oct-22 07:39N 35°31' E 140°01'0 0.0
2017-Oct-22 07:21N 35°31' E 140°01'0 0.0
2017-Oct-22 06:57N 35°31' E 140°01'0 0.0
2017-Oct-22 06:30N 35°31' E 140°01'0 0.0
2017-Oct-22 05:51N 35°31' E 140°01'0 0.0
2017-Oct-22 05:28N 35°31' E 140°01'0 0.1
2017-Oct-22 04:57N 35°31' E 140°01'4 0.1
2017-Oct-20 22:23N 35°34' E 139°59'3 8.2
2017-Oct-20 22:00N 35°32' E 139°56'1 0.1
2017-Oct-20 15:02N 35°32' E 139°55'0 0.3
2017-Oct-20 15:00N 35°32' E 139°55'4 8.0
2017-Oct-20 14:30N 35°30' E 139°51'8 8.5
2017-Oct-20 13:30N 35°25' E 139°43'3 5.1
2017-Oct-20 12:58N 35°24' E 139°39'0 0.2
2017-Oct-20 12:28N 35°25' E 139°39'0 0.0
2017-Oct-20 12:01N 35°25' E 139°39'0 0.0
2017-Oct-20 11:31N 35°25' E 139°39'0 0.0
2017-Oct-20 10:58N 35°25' E 139°39'0 0.0
2017-Oct-20 10:28N 35°25' E 139°39'0 0.1
2017-Oct-20 09:57N 35°25' E 139°39'0 0.1
2017-Oct-20 09:27N 35°25' E 139°39'0 0.0
2017-Oct-20 09:00N 35°25' E 139°39'0 0.0
2017-Oct-20 08:30N 35°25' E 139°39'0 0.0
2017-Oct-20 08:00N 35°25' E 139°39'0 0.0
2017-Oct-20 07:19N 35°25' E 139°39'0 0.0
2017-Oct-20 06:55N 35°25' E 139°39'0 0.1
2017-Oct-20 06:28N 35°25' E 139°39'0 0.1
2017-Oct-20 06:00N 35°25' E 139°39'2 4.4
2017-Oct-20 05:30N 35°24' E 139°42'611.0
2017-Oct-20 05:00N 35°28' E 139°47'611.0
2017-Oct-20 04:30N 35°31' E 139°52'6 0.3
2017-Oct-19 11:36N 35°33' E 139°59'1 8.5
2017-Oct-19 11:30N 35°32' E 139°58'4 8.6
2017-Oct-19 11:00N 35°31' E 139°53'4 8.3
2017-Oct-19 10:30N 35°29' E 139°49'4 8.1
2017-Oct-19 10:00N 35°27' E 139°45'4 7.8
2017-Oct-19 09:30N 35°24' E 139°42'2 3.9
2017-Oct-19 08:59N 35°25' E 139°39'0 0.0
2017-Oct-19 08:29N 35°25' E 139°39'0 0.0
2017-Oct-19 07:59N 35°25' E 139°39'0 0.1
2017-Oct-19 07:26N 35°25' E 139°39'0 0.1
2017-Oct-19 06:57N 35°25' E 139°39'0 0.0
2017-Oct-19 06:26N 35°25' E 139°39'0 0.0
2017-Oct-19 05:56N 35°25' E 139°39'0 0.1
2017-Oct-19 05:29N 35°25' E 139°39'0 0.1
2017-Oct-19 05:00N 35°25' E 139°39'0 0.0
2017-Oct-19 04:29N 35°25' E 139°39'0 0.1
2017-Oct-19 03:59N 35°25' E 139°39'0 0.1
2017-Oct-19 03:29N 35°25' E 139°39'0 0.0
2017-Oct-19 02:59N 35°25' E 139°39'0 0.1
2017-Oct-19 02:31N 35°25' E 139°39'2 4.1
2017-Oct-19 01:58N 35°22' E 139°40'0 0.0
2017-Oct-19 01:28N 35°22' E 139°40'0 0.0
2017-Oct-19 00:58N 35°22' E 139°40'0 0.0
2017-Oct-19 00:28N 35°22' E 139°40'0 0.1
2017-Oct-18 23:58N 35°22' E 139°40'0 0.1
2017-Oct-18 23:28N 35°22' E 139°40'0 0.0
2017-Oct-18 22:58N 35°22' E 139°40'0 0.0
2017-Oct-18 22:28N 35°22' E 139°40'0 0.1
2017-Oct-18 21:55N 35°22' E 139°40'0 0.0
2017-Oct-18 21:28N 35°22' E 139°40'0 0.0
2017-Oct-18 20:58N 35°22' E 139°40'0 0.1
2017-Oct-18 20:28N 35°22' E 139°40'0 0.1
2017-Oct-18 19:58N 35°22' E 139°40'0 0.1
2017-Oct-18 19:28N 35°22' E 139°40'0 0.0
2017-Oct-18 18:58N 35°22' E 139°40'0 0.0
2017-Oct-18 18:28N 35°22' E 139°40'0 0.0
2017-Oct-18 17:58N 35°22' E 139°40'0 0.1
2017-Oct-18 17:28N 35°22' E 139°40'0 0.0
2017-Oct-18 16:58N 35°22' E 139°40'0 0.1
2017-Oct-18 16:28N 35°22' E 139°40'0 0.0
2017-Oct-18 15:58N 35°22' E 139°40'0 0.0
2017-Oct-18 15:28N 35°22' E 139°40'0 0.0
2017-Oct-18 14:58N 35°22' E 139°40'0 0.0
2017-Oct-18 13:58N 35°22' E 139°40'0 0.0
2017-Oct-18 13:28N 35°22' E 139°40'0 0.0
2017-Oct-18 12:58N 35°22' E 139°40'0 0.0
2017-Oct-18 12:28N 35°22' E 139°40'0 0.0
2017-Oct-18 11:58N 35°22' E 139°40'0 0.0
2017-Oct-18 11:28N 35°22' E 139°40'0 0.0
2017-Oct-18 10:58N 35°22' E 139°40'0 0.0
2017-Oct-18 10:28N 35°22' E 139°40'0 0.0
2017-Oct-18 09:58N 35°22' E 139°40'0 0.0
2017-Oct-18 09:28N 35°22' E 139°40'0 0.0
2017-Oct-18 08:58N 35°22' E 139°40'0 0.0
2017-Oct-18 08:28N 35°22' E 139°40'0 0.0
2017-Oct-18 07:55N 35°22' E 139°40'0 0.0
2017-Oct-18 07:28N 35°22' E 139°40'0 0.0
2017-Oct-18 06:58N 35°22' E 139°40'0 0.1
2017-Oct-18 06:31N 35°23' E 139°40'4 8.7
2017-Oct-18 06:01N 35°26' E 139°44'611.1
2017-Oct-18 05:30N 35°29' E 139°49'11 0.2
2017-Oct-16 04:10N 35°31' E 140°03'0 0.4
2017-Oct-16 03:59N 35°31' E 140°03'3 0.2
2017-Oct-15 12:11N 35°33' E 139°60'2 8.5
2017-Oct-15 11:59N 35°32' E 139°58'4 8.4
2017-Oct-15 11:30N 35°31' E 139°53'4 8.6
2017-Oct-15 11:00N 35°29' E 139°48'4 8.4
2017-Oct-15 10:30N 35°26' E 139°44'4 8.2
2017-Oct-15 10:00N 35°23' E 139°41'2 3.6
2017-Oct-15 09:30N 35°25' E 139°39'0 0.0
2017-Oct-15 09:00N 35°25' E 139°39'0 0.1
2017-Oct-15 08:30N 35°25' E 139°39'0 0.1
2017-Oct-15 08:00N 35°25' E 139°39'0 0.1
2017-Oct-15 07:30N 35°25' E 139°39'0 0.1
2017-Oct-15 07:00N 35°25' E 139°39'0 0.0
2017-Oct-15 06:30N 35°25' E 139°39'0 0.0
2017-Oct-15 06:00N 35°25' E 139°39'0 0.0
2017-Oct-15 05:30N 35°25' E 139°39'0 0.0
2017-Oct-15 05:00N 35°25' E 139°39'0 0.0
2017-Oct-15 04:30N 35°25' E 139°39'0 0.0
2017-Oct-15 04:00N 35°25' E 139°39'0 0.0
2017-Oct-15 03:30N 35°25' E 139°39'0 0.0
2017-Oct-15 03:00N 35°25' E 139°39'1 1.8
2017-Oct-15 02:30N 35°24' E 139°40'3 6.1
2017-Oct-15 02:00N 35°27' E 139°41'1 2.2
2017-Oct-15 01:30N 35°27' E 139°40'0 0.0
2017-Oct-15 00:50N 35°27' E 139°40'0 0.0
2017-Oct-15 00:29N 35°27' E 139°40'0 0.0
2017-Oct-15 00:00N 35°27' E 139°40'0 0.0
2017-Oct-14 23:30N 35°27' E 139°40'0 0.0
2017-Oct-14 22:56N 35°27' E 139°40'0 0.0
2017-Oct-14 22:29N 35°27' E 139°40'0 0.0
2017-Oct-14 22:00N 35°27' E 139°40'0 0.0
2017-Oct-14 21:29N 35°27' E 139°40'0 0.0
2017-Oct-14 20:59N 35°27' E 139°40'0 0.0
2017-Oct-14 20:30N 35°27' E 139°40'0 0.0
2017-Oct-14 19:56N 35°27' E 139°40'0 0.0
2017-Oct-14 19:29N 35°27' E 139°40'0 0.0
2017-Oct-14 19:00N 35°27' E 139°40'0 0.0
2017-Oct-14 18:29N 35°27' E 139°40'0 0.0
2017-Oct-14 17:59N 35°27' E 139°40'0 0.0
2017-Oct-14 17:30N 35°27' E 139°40'0 0.0
2017-Oct-14 17:00N 35°27' E 139°40'0 0.0
2017-Oct-14 16:29N 35°27' E 139°40'0 0.0
2017-Oct-14 15:56N 35°27' E 139°40'0 0.0
2017-Oct-14 15:30N 35°27' E 139°40'0 0.0
2017-Oct-14 15:00N 35°27' E 139°40'0 0.0
2017-Oct-14 14:30N 35°27' E 139°40'0 0.0
2017-Oct-14 13:59N 35°27' E 139°40'0 0.0
2017-Oct-14 13:29N 35°27' E 139°40'0 0.0
2017-Oct-14 12:59N 35°27' E 139°40'0 0.0
2017-Oct-14 12:29N 35°27' E 139°40'0 0.0
2017-Oct-14 11:59N 35°27' E 139°40'0 0.0
2017-Oct-14 11:29N 35°27' E 139°40'0 0.0
2017-Oct-14 10:59N 35°27' E 139°40'0 0.0
2017-Oct-14 10:29N 35°27' E 139°40'0 0.0
2017-Oct-14 09:59N 35°27' E 139°40'0 0.0
2017-Oct-14 09:26N 35°27' E 139°40'0 0.0
2017-Oct-14 08:59N 35°27' E 139°40'0 0.0
2017-Oct-14 08:29N 35°27' E 139°40'0 0.0
2017-Oct-14 07:59N 35°27' E 139°40'0 0.0
2017-Oct-14 07:29N 35°27' E 139°40'0 0.0
2017-Oct-14 06:59N 35°27' E 139°40'0 0.0
2017-Oct-14 06:29N 35°27' E 139°40'0 0.0
2017-Oct-14 05:59N 35°27' E 139°40'0 0.0
2017-Oct-14 05:29N 35°27' E 139°40'0 0.0
2017-Oct-14 04:59N 35°27' E 139°40'0 0.0
2017-Oct-14 04:29N 35°27' E 139°40'0 0.0
2017-Oct-14 03:59N 35°27' E 139°40'0 0.0
2017-Oct-14 03:29N 35°27' E 139°40'0 0.0
2017-Oct-14 02:59N 35°27' E 139°40'0 0.0
2017-Oct-14 02:29N 35°27' E 139°40'0 0.0
2017-Oct-14 01:59N 35°27' E 139°40'0 0.0
2017-Oct-14 01:29N 35°27' E 139°40'0 0.0
2017-Oct-14 00:59N 35°27' E 139°40'0 0.0
2017-Oct-14 00:29N 35°27' E 139°40'0 0.0
2017-Oct-13 23:59N 35°27' E 139°40'0 0.0
2017-Oct-13 23:29N 35°27' E 139°40'0 0.0
2017-Oct-13 22:59N 35°27' E 139°40'0 0.0
2017-Oct-13 22:29N 35°27' E 139°40'0 0.0
2017-Oct-13 21:59N 35°27' E 139°40'0 0.0
2017-Oct-13 21:29N 35°27' E 139°40'0 0.0
2017-Oct-13 20:56N 35°27' E 139°40'0 0.0
2017-Oct-13 20:29N 35°27' E 139°40'0 0.0
2017-Oct-13 19:59N 35°27' E 139°40'0 0.0
2017-Oct-13 19:29N 35°27' E 139°40'0 0.0
2017-Oct-13 18:59N 35°27' E 139°40'0 0.0
2017-Oct-13 18:29N 35°27' E 139°40'0 0.0
2017-Oct-13 17:59N 35°27' E 139°40'0 0.0
2017-Oct-13 17:26N 35°27' E 139°40'0 0.0
2017-Oct-13 16:56N 35°27' E 139°40'0 0.0
2017-Oct-13 16:29N 35°27' E 139°40'0 0.0
2017-Oct-13 15:59N 35°27' E 139°40'0 0.0
2017-Oct-13 15:29N 35°27' E 139°40'0 0.0
2017-Oct-13 14:59N 35°27' E 139°40'0 0.0
2017-Oct-13 14:29N 35°27' E 139°40'0 0.0
2017-Oct-13 13:59N 35°27' E 139°40'0 0.0
2017-Oct-13 13:29N 35°27' E 139°40'0 0.0
2017-Oct-13 12:59N 35°27' E 139°40'0 0.0
2017-Oct-13 12:29N 35°27' E 139°40'0 0.0
2017-Oct-13 11:59N 35°27' E 139°40'0 0.0
2017-Oct-13 11:29N 35°27' E 139°40'0 0.0
2017-Oct-13 10:59N 35°27' E 139°40'0 0.0
2017-Oct-13 10:29N 35°27' E 139°40'0 0.0
2017-Oct-13 09:59N 35°27' E 139°40'0 0.0
2017-Oct-13 09:29N 35°27' E 139°40'0 0.0
2017-Oct-13 08:59N 35°27' E 139°40'0 0.0
2017-Oct-13 08:29N 35°27' E 139°40'  
Track history (hours):
 
Tides and Currents Weather Stations Pressure Air Temp Water Temp Dewpoint Dewpoint Depression Visibility Wind Speed Wind Dir Waves Ship Positions

Nichimi Maru

Last reported at 2017-Oct-23 08:00 UTC. Time now 2017-Oct-23 08:22 UTC.
Position N 35°24' E 139°42'.

Length 89 m; draft 3.6 m.

Type: Tanker. MMSI: 431000495.

Date/timePositionNaut miles runAvg speedWind from/ knotsBaromVisibWave heightAir tempDewpointWater temp
2017-Oct-23 08:00N 35°24' E 139°42'510.4
2017-Oct-23 07:30N 35°26' E 139°47'610.7
2017-Oct-23 06:58N 35°30' E 139°53'4 9.3
2017-Oct-23 06:30N 35°30' E 139°58'3 3.4
2017-Oct-23 05:41N 35°31' E 140°01'0 0.0
2017-Oct-23 05:30N 35°31' E 140°01'0 0.1
2017-Oct-23 04:44N 35°31' E 140°02'0 0.2
2017-Oct-23 04:24N 35°31' E 140°01'0 0.0
2017-Oct-23 03:54N 35°31' E 140°01'0 0.0
2017-Oct-23 03:18N 35°31' E 140°01'0 0.0
2017-Oct-23 02:58N 35°31' E 140°01'0 0.1
2017-Oct-23 02:26N 35°31' E 140°02'0 0.1
2017-Oct-23 01:29N 35°31' E 140°01'0 0.0
2017-Oct-22 22:19N 35°31' E 140°02'0 0.0
2017-Oct-22 14:43N 35°31' E 140°01'0 0.0
2017-Oct-22 14:07N 35°31' E 140°01'0 0.0
2017-Oct-22 13:08N 35°31' E 140°01'0 0.0
2017-Oct-22 12:48N 35°31' E 140°01'0 0.0
2017-Oct-22 07:39N 35°31' E 140°01'0 0.0
2017-Oct-22 07:21N 35°31' E 140°01'0 0.0
2017-Oct-22 06:57N 35°31' E 140°01'0 0.0
2017-Oct-22 06:30N 35°31' E 140°01'0 0.0
2017-Oct-22 05:51N 35°31' E 140°01'0 0.0
2017-Oct-22 05:28N 35°31' E 140°01'0 0.1
2017-Oct-22 04:57N 35°31' E 140°01'4 0.1
2017-Oct-20 22:23N 35°34' E 139°59'3 8.2
2017-Oct-20 22:00N 35°32' E 139°56'1 0.1
2017-Oct-20 15:02N 35°32' E 139°55'0 0.3
2017-Oct-20 15:00N 35°32' E 139°55'4 8.0
2017-Oct-20 14:30N 35°30' E 139°51'8 8.5
2017-Oct-20 13:30N 35°25' E 139°43'3 5.1
2017-Oct-20 12:58N 35°24' E 139°39'0 0.2
2017-Oct-20 12:28N 35°25' E 139°39'0 0.0
2017-Oct-20 12:01N 35°25' E 139°39'0 0.0
2017-Oct-20 11:31N 35°25' E 139°39'0 0.0
2017-Oct-20 10:58N 35°25' E 139°39'0 0.0
2017-Oct-20 10:28N 35°25' E 139°39'0 0.1
2017-Oct-20 09:57N 35°25' E 139°39'0 0.1
2017-Oct-20 09:27N 35°25' E 139°39'0 0.0
2017-Oct-20 09:00N 35°25' E 139°39'0 0.0
2017-Oct-20 08:30N 35°25' E 139°39'0 0.0
2017-Oct-20 08:00N 35°25' E 139°39'0 0.0
2017-Oct-20 07:19N 35°25' E 139°39'0 0.0
2017-Oct-20 06:55N 35°25' E 139°39'0 0.1
2017-Oct-20 06:28N 35°25' E 139°39'0 0.1
2017-Oct-20 06:00N 35°25' E 139°39'2 4.4
2017-Oct-20 05:30N 35°24' E 139°42'611.0
2017-Oct-20 05:00N 35°28' E 139°47'611.0
2017-Oct-20 04:30N 35°31' E 139°52'6 0.3
2017-Oct-19 11:36N 35°33' E 139°59'1 8.5
2017-Oct-19 11:30N 35°32' E 139°58'4 8.6
2017-Oct-19 11:00N 35°31' E 139°53'4 8.3
2017-Oct-19 10:30N 35°29' E 139°49'4 8.1
2017-Oct-19 10:00N 35°27' E 139°45'4 7.8
2017-Oct-19 09:30N 35°24' E 139°42'2 3.9
2017-Oct-19 08:59N 35°25' E 139°39'0 0.0
2017-Oct-19 08:29N 35°25' E 139°39'0 0.0
2017-Oct-19 07:59N 35°25' E 139°39'0 0.1
2017-Oct-19 07:26N 35°25' E 139°39'0 0.1
2017-Oct-19 06:57N 35°25' E 139°39'0 0.0
2017-Oct-19 06:26N 35°25' E 139°39'0 0.0
2017-Oct-19 05:56N 35°25' E 139°39'0 0.1
2017-Oct-19 05:29N 35°25' E 139°39'0 0.1
2017-Oct-19 05:00N 35°25' E 139°39'0 0.0
2017-Oct-19 04:29N 35°25' E 139°39'0 0.1
2017-Oct-19 03:59N 35°25' E 139°39'0 0.1
2017-Oct-19 03:29N 35°25' E 139°39'0 0.0
2017-Oct-19 02:59N 35°25' E 139°39'0 0.1
2017-Oct-19 02:31N 35°25' E 139°39'2 4.1
2017-Oct-19 01:58N 35°22' E 139°40'0 0.0
2017-Oct-19 01:28N 35°22' E 139°40'0 0.0
2017-Oct-19 00:58N 35°22' E 139°40'0 0.0
2017-Oct-19 00:28N 35°22' E 139°40'0 0.1
2017-Oct-18 23:58N 35°22' E 139°40'0 0.1
2017-Oct-18 23:28N 35°22' E 139°40'0 0.0
2017-Oct-18 22:58N 35°22' E 139°40'0 0.0
2017-Oct-18 22:28N 35°22' E 139°40'0 0.1
2017-Oct-18 21:55N 35°22' E 139°40'0 0.0
2017-Oct-18 21:28N 35°22' E 139°40'0 0.0
2017-Oct-18 20:58N 35°22' E 139°40'0 0.1
2017-Oct-18 20:28N 35°22' E 139°40'0 0.1
2017-Oct-18 19:58N 35°22' E 139°40'0 0.1
2017-Oct-18 19:28N 35°22' E 139°40'0 0.0
2017-Oct-18 18:58N 35°22' E 139°40'0 0.0
2017-Oct-18 18:28N 35°22' E 139°40'0 0.0
2017-Oct-18 17:58N 35°22' E 139°40'0 0.1
2017-Oct-18 17:28N 35°22' E 139°40'0 0.0
2017-Oct-18 16:58N 35°22' E 139°40'0 0.1
2017-Oct-18 16:28N 35°22' E 139°40'0 0.0
2017-Oct-18 15:58N 35°22' E 139°40'0 0.0
2017-Oct-18 15:28N 35°22' E 139°40'0 0.0
2017-Oct-18 14:58N 35°22' E 139°40'0 0.0
2017-Oct-18 13:58N 35°22' E 139°40'0 0.0
2017-Oct-18 13:28N 35°22' E 139°40'0 0.0
2017-Oct-18 12:58N 35°22' E 139°40'0 0.0
2017-Oct-18 12:28N 35°22' E 139°40'0 0.0
2017-Oct-18 11:58N 35°22' E 139°40'0 0.0
2017-Oct-18 11:28N 35°22' E 139°40'0 0.0
2017-Oct-18 10:58N 35°22' E 139°40'0 0.0
2017-Oct-18 10:28N 35°22' E 139°40'0 0.0
2017-Oct-18 09:58N 35°22' E 139°40'0 0.0
2017-Oct-18 09:28N 35°22' E 139°40'0 0.0
2017-Oct-18 08:58N 35°22' E 139°40'0 0.0
2017-Oct-18 08:28N 35°22' E 139°40'0 0.0
2017-Oct-18 07:55N 35°22' E 139°40'0 0.0
2017-Oct-18 07:28N 35°22' E 139°40'0 0.0
2017-Oct-18 06:58N 35°22' E 139°40'0 0.1
2017-Oct-18 06:31N 35°23' E 139°40'4 8.7
2017-Oct-18 06:01N 35°26' E 139°44'611.1
2017-Oct-18 05:30N 35°29' E 139°49'11 0.2
2017-Oct-16 04:10N 35°31' E 140°03'0 0.4
2017-Oct-16 03:59N 35°31' E 140°03'3 0.2
2017-Oct-15 12:11N 35°33' E 139°60'2 8.5
2017-Oct-15 11:59N 35°32' E 139°58'4 8.4
2017-Oct-15 11:30N 35°31' E 139°53'4 8.6
2017-Oct-15 11:00N 35°29' E 139°48'4 8.4
2017-Oct-15 10:30N 35°26' E 139°44'4 8.2
2017-Oct-15 10:00N 35°23' E 139°41'2 3.6
2017-Oct-15 09:30N 35°25' E 139°39'0 0.0
2017-Oct-15 09:00N 35°25' E 139°39'0 0.1
2017-Oct-15 08:30N 35°25' E 139°39'0 0.1
2017-Oct-15 08:00N 35°25' E 139°39'0 0.1
2017-Oct-15 07:30N 35°25' E 139°39'0 0.1
2017-Oct-15 07:00N 35°25' E 139°39'0 0.0
2017-Oct-15 06:30N 35°25' E 139°39'0 0.0
2017-Oct-15 06:00N 35°25' E 139°39'0 0.0
2017-Oct-15 05:30N 35°25' E 139°39'0 0.0
2017-Oct-15 05:00N 35°25' E 139°39'0 0.0
2017-Oct-15 04:30N 35°25' E 139°39'0 0.0
2017-Oct-15 04:00N 35°25' E 139°39'0 0.0
2017-Oct-15 03:30N 35°25' E 139°39'0 0.0
2017-Oct-15 03:00N 35°25' E 139°39'1 1.8
2017-Oct-15 02:30N 35°24' E 139°40'3 6.1
2017-Oct-15 02:00N 35°27' E 139°41'1 2.2
2017-Oct-15 01:30N 35°27' E 139°40'0 0.0
2017-Oct-15 00:50N 35°27' E 139°40'0 0.0
2017-Oct-15 00:29N 35°27' E 139°40'0 0.0
2017-Oct-15 00:00N 35°27' E 139°40'0 0.0
2017-Oct-14 23:30N 35°27' E 139°40'0 0.0
2017-Oct-14 22:56N 35°27' E 139°40'0 0.0
2017-Oct-14 22:29N 35°27' E 139°40'0 0.0
2017-Oct-14 22:00N 35°27' E 139°40'0 0.0
2017-Oct-14 21:29N 35°27' E 139°40'0 0.0
2017-Oct-14 20:59N 35°27' E 139°40'0 0.0
2017-Oct-14 20:30N 35°27' E 139°40'0 0.0
2017-Oct-14 19:56N 35°27' E 139°40'0 0.0
2017-Oct-14 19:29N 35°27' E 139°40'0 0.0
2017-Oct-14 19:00N 35°27' E 139°40'0 0.0
2017-Oct-14 18:29N 35°27' E 139°40'0 0.0
2017-Oct-14 17:59N 35°27' E 139°40'0 0.0
2017-Oct-14 17:30N 35°27' E 139°40'0 0.0
2017-Oct-14 17:00N 35°27' E 139°40'0 0.0
2017-Oct-14 16:29N 35°27' E 139°40'0 0.0
2017-Oct-14 15:56N 35°27' E 139°40'0 0.0
2017-Oct-14 15:30N 35°27' E 139°40'0 0.0
2017-Oct-14 15:00N 35°27' E 139°40'0 0.0
2017-Oct-14 14:30N 35°27' E 139°40'0 0.0
2017-Oct-14 13:59N 35°27' E 139°40'0 0.0
2017-Oct-14 13:29N 35°27' E 139°40'0 0.0
2017-Oct-14 12:59N 35°27' E 139°40'0 0.0
2017-Oct-14 12:29N 35°27' E 139°40'0 0.0
2017-Oct-14 11:59N 35°27' E 139°40'0 0.0
2017-Oct-14 11:29N 35°27' E 139°40'0 0.0
2017-Oct-14 10:59N 35°27' E 139°40'0 0.0
2017-Oct-14 10:29N 35°27' E 139°40'0 0.0
2017-Oct-14 09:59N 35°27' E 139°40'0 0.0
2017-Oct-14 09:26N 35°27' E 139°40'0 0.0
2017-Oct-14 08:59N 35°27' E 139°40'0 0.0
2017-Oct-14 08:29N 35°27' E 139°40'0 0.0
2017-Oct-14 07:59N 35°27' E 139°40'0 0.0
2017-Oct-14 07:29N 35°27' E 139°40'0 0.0
2017-Oct-14 06:59N 35°27' E 139°40'0 0.0
2017-Oct-14 06:29N 35°27' E 139°40'0 0.0
2017-Oct-14 05:59N 35°27' E 139°40'0 0.0
2017-Oct-14 05:29N 35°27' E 139°40'0 0.0
2017-Oct-14 04:59N 35°27' E 139°40'0 0.0
2017-Oct-14 04:29N 35°27' E 139°40'0 0.0
2017-Oct-14 03:59N 35°27' E 139°40'0 0.0
2017-Oct-14 03:29N 35°27' E 139°40'0 0.0
2017-Oct-14 02:59N 35°27' E 139°40'0 0.0
2017-Oct-14 02:29N 35°27' E 139°40'0 0.0
2017-Oct-14 01:59N 35°27' E 139°40'0 0.0
2017-Oct-14 01:29N 35°27' E 139°40'0 0.0
2017-Oct-14 00:59N 35°27' E 139°40'0 0.0
2017-Oct-14 00:29N 35°27' E 139°40'0 0.0
2017-Oct-13 23:59N 35°27' E 139°40'0 0.0
2017-Oct-13 23:29N 35°27' E 139°40'0 0.0
2017-Oct-13 22:59N 35°27' E 139°40'0 0.0
2017-Oct-13 22:29N 35°27' E 139°40'0 0.0
2017-Oct-13 21:59N 35°27' E 139°40'0 0.0
2017-Oct-13 21:29N 35°27' E 139°40'0 0.0
2017-Oct-13 20:56N 35°27' E 139°40'0 0.0
2017-Oct-13 20:29N 35°27' E 139°40'0 0.0
2017-Oct-13 19:59N 35°27' E 139°40'0 0.0
2017-Oct-13 19:29N 35°27' E 139°40'0 0.0
2017-Oct-13 18:59N 35°27' E 139°40'0 0.0
2017-Oct-13 18:29N 35°27' E 139°40'0 0.0
2017-Oct-13 17:59N 35°27' E 139°40'0 0.0
2017-Oct-13 17:26N 35°27' E 139°40'0 0.0
2017-Oct-13 16:56N 35°27' E 139°40'0 0.0
2017-Oct-13 16:29N 35°27' E 139°40'0 0.0
2017-Oct-13 15:59N 35°27' E 139°40'0 0.0
2017-Oct-13 15:29N 35°27' E 139°40'0 0.0
2017-Oct-13 14:59N 35°27' E 139°40'0 0.0
2017-Oct-13 14:29N 35°27' E 139°40'0 0.0
2017-Oct-13 13:59N 35°27' E 139°40'0 0.0
2017-Oct-13 13:29N 35°27' E 139°40'0 0.0
2017-Oct-13 12:59N 35°27' E 139°40'0 0.0
2017-Oct-13 12:29N 35°27' E 139°40'0 0.0
2017-Oct-13 11:59N 35°27' E 139°40'0 0.0
2017-Oct-13 11:29N 35°27' E 139°40'0 0.0
2017-Oct-13 10:59N 35°27' E 139°40'0 0.0
2017-Oct-13 10:29N 35°27' E 139°40'0 0.0
2017-Oct-13 09:59N 35°27' E 139°40'0 0.0
2017-Oct-13 09:29N 35°27' E 139°40'0 0.0
2017-Oct-13 08:59N 35°27' E 139°40'0 0.0
2017-Oct-13 08:29N 35°27' E 139°40'  

Dump ship's entire track history